createdAt,value
2019-04-14T00:02:45.400Z,32.20
2019-04-14T00:05:16.901Z,32.07
2019-04-14T00:07:47.241Z,32.93
2019-04-14T00:10:18.891Z,31.07
2019-04-14T00:12:49.516Z,30.83
2019-04-14T00:15:29.344Z,30.53
2019-04-14T00:17:52.610Z,32.40
2019-04-14T00:20:23.003Z,30.43
2019-04-14T00:22:53.411Z,30.90
2019-04-14T00:25:24.006Z,29.00
2019-04-14T00:27:54.425Z,30.63
2019-04-14T00:30:25.220Z,29.80
2019-04-14T00:32:59.501Z,31.30
2019-04-14T00:35:36.415Z,31.05
2019-04-14T00:38:45.522Z,34.00
2019-04-14T00:41:47.247Z,35.13
2019-04-14T00:44:41.102Z,34.37
2019-04-14T00:47:16.400Z,32.90
2019-04-14T00:49:47.090Z,30.33
2019-04-14T00:52:18.872Z,31.20
2019-04-14T00:54:50.047Z,27.90
2019-04-14T00:57:20.310Z,29.73
2019-04-14T00:59:50.938Z,27.83
2019-04-14T01:02:21.535Z,24.77
2019-04-14T01:04:53.316Z,25.23
2019-04-14T01:07:24.153Z,22.60
2019-04-14T01:09:55.376Z,24.00
2019-04-14T01:12:25.863Z,23.10
2019-04-14T01:14:56.147Z,23.67
2019-04-14T01:17:26.620Z,25.95
2019-04-14T01:19:56.996Z,24.67
2019-04-14T01:22:29.260Z,24.47
2019-04-14T01:25:00.005Z,23.47
2019-04-14T01:27:32.026Z,24.20
2019-04-14T01:30:02.659Z,23.97
2019-04-14T01:32:33.200Z,22.87
2019-04-14T01:35:03.375Z,21.60
2019-04-14T01:37:33.826Z,23.50
2019-04-14T01:40:05.219Z,22.53
2019-04-14T01:42:35.776Z,22.93
2019-04-14T01:45:07.943Z,24.20
2019-04-14T01:47:39.948Z,23.35
2019-04-14T01:50:10.612Z,26.00
2019-04-14T01:53:05.773Z,23.73
2019-04-14T01:55:46.668Z,29.70
2019-04-14T01:58:23.031Z,24.80
2019-04-14T02:01:12.772Z,24.40
2019-04-14T02:03:43.321Z,26.23
2019-04-14T02:06:13.995Z,24.70
2019-04-14T02:08:44.226Z,26.70
2019-04-14T02:11:15.849Z,27.80
2019-04-14T02:13:46.584Z,26.13
2019-04-14T02:16:25.966Z,26.87
2019-04-14T02:18:51.764Z,25.20
2019-04-14T02:21:21.624Z,25.60
2019-04-14T02:23:51.949Z,27.87
2019-04-14T02:26:22.421Z,28.50
2019-04-14T02:28:52.900Z,25.90
2019-04-14T02:31:45.371Z,28.43
2019-04-14T02:34:28.328Z,30.27
2019-04-14T02:36:58.683Z,31.53
2019-04-14T02:39:33.819Z,26.47
2019-04-14T02:44:51.630Z,27.33
2019-04-14T02:49:34.996Z,28.03
2019-04-14T02:52:11.977Z,26.40
2019-04-14T02:54:51.771Z,26.70
2019-04-14T02:57:16.794Z,28.20
2019-04-14T02:59:45.161Z,26.47
2019-04-14T03:04:50.949Z,25.53
2019-04-14T03:12:39.671Z,29.03
2019-04-14T03:15:08.984Z,29.23
2019-04-14T03:18:00.524Z,29.43
2019-04-14T03:20:47.636Z,29.03
2019-04-14T03:23:34.817Z,29.43
2019-04-14T03:26:04.873Z,29.20
2019-04-14T03:28:51.426Z,28.60
2019-04-14T03:37:18.540Z,30.00
2019-04-14T03:44:11.816Z,29.20
2019-04-14T03:51:43.177Z,25.77
2019-04-14T03:53:59.122Z,29.30
2019-04-14T03:56:55.640Z,32.37
2019-04-14T03:59:28.198Z,30.17
2019-04-14T04:01:58.733Z,32.83
2019-04-14T04:04:29.432Z,26.50
2019-04-14T04:06:59.752Z,27.73
2019-04-14T04:09:43.885Z,30.47
2019-04-14T04:12:14.050Z,31.47
2019-04-14T04:14:44.295Z,30.87
2019-04-14T04:17:34.202Z,30.30
2019-04-14T04:20:27.090Z,31.77
2019-04-14T04:23:16.184Z,34.63
2019-04-14T04:25:55.100Z,29.07
2019-04-14T04:28:52.346Z,30.23
2019-04-14T04:31:39.498Z,31.53
2019-04-14T04:34:44.562Z,36.37
2019-04-14T04:37:34.561Z,31.63
2019-04-14T04:40:11.389Z,30.93
2019-04-14T04:42:41.686Z,39.15
2019-04-14T04:45:12.795Z,33.50
2019-04-14T04:47:43.195Z,34.03
2019-04-14T04:50:13.387Z,38.17
2019-04-14T04:52:43.590Z,35.80
2019-04-14T04:55:13.834Z,40.73
2019-04-14T04:57:44.006Z,37.63
2019-04-14T05:00:15.608Z,37.77
2019-04-14T05:02:46.335Z,37.97
2019-04-14T05:05:53.581Z,39.03
2019-04-14T05:08:24.194Z,36.53
2019-04-14T05:11:03.754Z,38.00
2019-04-14T05:13:40.235Z,37.90
2019-04-14T05:16:10.809Z,39.03
2019-04-14T05:18:41.907Z,35.20
2019-04-14T05:21:12.720Z,34.13
2019-04-14T05:23:43.217Z,35.43
2019-04-14T05:26:13.457Z,40.07
2019-04-14T05:28:43.817Z,35.63
2019-04-14T05:31:14.306Z,35.40
2019-04-14T05:33:44.895Z,38.20
2019-04-14T05:36:15.330Z,38.47
2019-04-14T05:38:45.520Z,36.63
2019-04-14T05:41:15.938Z,36.20
2019-04-14T05:43:52.056Z,36.63
2019-04-14T05:46:18.612Z,36.03
2019-04-14T05:48:49.228Z,42.53
2019-04-14T05:51:21.689Z,54.83
2019-04-14T05:53:52.375Z,72.47
2019-04-14T05:56:23.134Z,68.10
2019-04-14T05:58:53.670Z,51.93
2019-04-14T06:01:24.805Z,51.93
2019-04-14T06:03:56.091Z,51.03
2019-04-14T06:06:26.572Z,47.65
2019-04-14T06:08:56.758Z,41.93
2019-04-14T06:11:26.971Z,39.47
2019-04-14T06:13:57.642Z,42.37
2019-04-14T06:16:28.041Z,42.50
2019-04-14T06:18:58.281Z,38.27
2019-04-14T06:21:28.530Z,38.63
2019-04-14T06:23:58.828Z,37.90
2019-04-14T06:26:29.215Z,36.77
2019-04-14T06:28:59.395Z,37.30
2019-04-14T06:31:47.870Z,33.80
2019-04-14T06:34:36.312Z,34.67
2019-04-14T06:37:31.521Z,38.30
2019-04-14T06:40:02.538Z,36.10
2019-04-14T06:42:32.774Z,33.80
2019-04-14T06:45:03.326Z,33.17
2019-04-14T06:47:33.856Z,29.30
2019-04-14T06:50:04.371Z,33.00
2019-04-14T06:52:35.005Z,35.87
2019-04-14T06:55:05.501Z,35.10
2019-04-14T06:57:35.772Z,43.13
2019-04-14T07:00:06.512Z,36.53
2019-04-14T07:02:36.884Z,37.10
2019-04-14T07:05:07.457Z,33.10
2019-04-14T07:07:37.723Z,32.60
2019-04-14T07:10:08.351Z,36.10
2019-04-14T07:12:38.633Z,37.93
2019-04-14T07:15:09.022Z,36.20
2019-04-14T07:17:39.302Z,33.83
2019-04-14T07:20:09.564Z,32.13
2019-04-14T07:22:40.065Z,35.67
2019-04-14T07:25:10.888Z,36.83
2019-04-14T07:27:42.228Z,34.10
2019-04-14T07:30:32.621Z,34.93
2019-04-14T07:33:20.594Z,32.03
2019-04-14T07:36:08.487Z,32.83
2019-04-14T07:38:48.905Z,33.73
2019-04-14T07:41:33.458Z,32.43
2019-04-14T07:44:16.894Z,33.67
2019-04-14T07:47:04.766Z,34.43
2019-04-14T07:49:54.997Z,31.57
2019-04-14T07:52:44.660Z,30.60
2019-04-14T07:55:33.245Z,31.80
2019-04-14T07:58:30.845Z,31.30
2019-04-14T08:01:25.792Z,33.67
2019-04-14T08:04:06.596Z,31.93
2019-04-14T08:06:38.496Z,32.20
2019-04-14T08:09:09.302Z,32.57
2019-04-14T08:11:39.898Z,32.90
2019-04-14T08:14:10.208Z,31.27
2019-04-14T08:16:40.637Z,32.67
2019-04-14T08:19:11.572Z,34.30
2019-04-14T08:21:42.023Z,31.00
2019-04-14T08:24:12.355Z,31.47
2019-04-14T08:26:42.883Z,37.43
2019-04-14T08:29:13.382Z,33.87
2019-04-14T08:31:43.703Z,38.10
2019-04-14T08:34:13.971Z,31.60
2019-04-14T08:36:44.409Z,30.10
2019-04-14T08:39:15.224Z,32.80
2019-04-14T08:42:03.147Z,31.60
2019-04-14T08:44:45.172Z,32.53
2019-04-14T08:47:45.680Z,30.93
2019-04-14T08:50:39.441Z,31.67
2019-04-14T08:53:28.426Z,30.20
2019-04-14T08:56:16.335Z,38.33
2019-04-14T08:59:05.678Z,32.70
2019-04-14T09:01:42.174Z,37.80
2019-04-14T09:04:20.707Z,28.93
2019-04-14T09:06:59.537Z,31.27
2019-04-14T09:09:55.459Z,31.87
2019-04-14T09:12:28.120Z,35.53
2019-04-14T09:14:58.839Z,38.20
2019-04-14T09:17:30.855Z,32.13
2019-04-14T09:20:03.745Z,31.60
2019-04-14T09:22:34.327Z,31.67
2019-04-14T09:25:08.146Z,34.37
2019-04-14T09:27:38.729Z,31.53
2019-04-14T09:30:09.652Z,28.90
2019-04-14T09:32:39.989Z,31.47
2019-04-14T09:35:10.339Z,35.57
2019-04-14T09:37:40.618Z,31.60
2019-04-14T09:40:11.377Z,32.43
2019-04-14T09:42:41.676Z,32.20
2019-04-14T09:45:12.181Z,33.73
2019-04-14T09:47:42.681Z,32.10
2019-04-14T09:50:14.506Z,38.47
2019-04-14T09:52:44.852Z,37.57
2019-04-14T09:55:15.361Z,32.50
2019-04-14T09:57:45.779Z,31.80
2019-04-14T10:00:17.318Z,32.70
2019-04-14T10:02:47.948Z,31.53
2019-04-14T10:05:18.414Z,30.23
2019-04-14T10:07:49.005Z,33.07
2019-04-14T10:10:19.550Z,36.33
2019-04-14T10:12:53.363Z,31.53
2019-04-14T10:15:24.412Z,29.80
2019-04-14T10:17:54.733Z,35.43
2019-04-14T10:20:25.247Z,30.97
2019-04-14T10:22:55.825Z,29.40
2019-04-14T10:25:26.186Z,30.60
2019-04-14T10:27:56.465Z,29.47
2019-04-14T10:30:27.207Z,29.10
2019-04-14T10:32:57.730Z,28.77
2019-04-14T10:35:28.524Z,30.20
2019-04-14T10:37:59.255Z,35.50
2019-04-14T10:40:30.074Z,31.80
2019-04-14T10:43:00.494Z,29.03
2019-04-14T10:45:32.119Z,29.57
2019-04-14T10:48:02.630Z,32.43
2019-04-14T10:50:33.073Z,28.73
2019-04-14T10:53:03.897Z,28.27
2019-04-14T10:55:34.176Z,31.77
2019-04-14T10:58:05.354Z,30.35
2019-04-14T11:00:38.751Z,30.00
2019-04-14T11:03:09.504Z,32.10
2019-04-14T11:05:57.111Z,26.90
2019-04-14T11:08:27.627Z,29.50
2019-04-14T11:10:58.152Z,29.97
2019-04-14T11:13:28.339Z,30.23
2019-04-14T11:15:58.527Z,31.43
2019-04-14T11:18:29.320Z,29.43
2019-04-14T11:21:00.604Z,28.70
2019-04-14T11:23:32.583Z,29.48
2019-04-14T11:26:03.140Z,27.00
2019-04-14T11:28:34.984Z,28.37
2019-04-14T11:31:05.473Z,29.53
2019-04-14T11:33:53.368Z,27.30
2019-04-14T11:36:43.167Z,29.10
2019-04-14T11:39:14.896Z,27.07
2019-04-14T11:41:45.299Z,28.93
2019-04-14T11:44:15.900Z,26.03
2019-04-14T11:46:46.333Z,30.10
2019-04-14T11:49:16.854Z,26.73
2019-04-14T11:51:55.132Z,29.23
2019-04-14T11:54:19.885Z,29.33
2019-04-14T11:56:50.512Z,29.30
2019-04-14T11:59:28.202Z,28.50
2019-04-14T12:02:11.585Z,29.23
2019-04-14T12:04:55.110Z,33.57
2019-04-14T12:08:03.666Z,32.83
2019-04-14T12:10:34.877Z,28.40
2019-04-14T12:13:05.650Z,28.50
2019-04-14T12:15:36.716Z,34.23
2019-04-14T12:18:07.772Z,27.50
2019-04-14T12:20:38.109Z,25.70
2019-04-14T12:23:08.464Z,26.50
2019-04-14T12:25:39.248Z,26.80
2019-04-14T12:28:09.781Z,31.00
2019-04-14T12:30:40.375Z,27.47
2019-04-14T12:33:10.822Z,28.50
2019-04-14T12:35:43.551Z,28.50
2019-04-14T12:38:13.885Z,31.23
2019-04-14T12:40:44.419Z,29.23
2019-04-14T12:43:40.128Z,28.60
2019-04-14T12:46:29.764Z,30.37
2019-04-14T12:49:11.304Z,28.00
2019-04-14T12:52:01.082Z,28.00
2019-04-14T12:54:32.515Z,33.10
2019-04-14T12:57:02.829Z,34.13
2019-04-14T12:59:35.560Z,31.23
2019-04-14T13:02:14.090Z,28.80
2019-04-14T13:04:44.347Z,29.97
2019-04-14T13:07:14.786Z,28.03
2019-04-14T13:09:45.623Z,30.00
2019-04-14T13:12:15.798Z,32.70
2019-04-14T13:14:46.409Z,27.80
2019-04-14T13:17:16.987Z,25.17
2019-04-14T13:19:47.948Z,27.73
2019-04-14T13:22:18.360Z,27.77
2019-04-14T13:24:49.434Z,28.87
2019-04-14T13:27:19.867Z,29.83
2019-04-14T13:29:50.978Z,28.83
2019-04-14T13:32:21.646Z,29.40
2019-04-14T13:34:52.310Z,30.93
2019-04-14T13:37:22.787Z,34.97
2019-04-14T13:39:53.550Z,30.03
2019-04-14T13:42:24.081Z,28.07
2019-04-14T13:44:54.610Z,35.13
2019-04-14T13:47:25.433Z,28.07
2019-04-14T13:49:56.240Z,28.50
2019-04-14T13:52:26.851Z,33.93
2019-04-14T13:54:57.621Z,27.50
2019-04-14T13:57:28.769Z,26.73
2019-04-14T14:00:00.142Z,27.50
2019-04-14T14:02:30.472Z,25.53
2019-04-14T14:05:01.422Z,23.57
2019-04-14T14:07:31.874Z,22.40
2019-04-14T14:10:02.720Z,22.57
2019-04-14T14:12:42.100Z,21.67
2019-04-14T14:15:32.382Z,23.40
2019-04-14T14:18:20.963Z,18.57
2019-04-14T14:21:02.135Z,19.23
2019-04-14T14:23:51.167Z,19.60
2019-04-14T14:26:23.624Z,18.23
2019-04-14T14:28:54.299Z,26.20
2019-04-14T14:31:25.080Z,18.80
2019-04-14T14:33:55.483Z,21.10
2019-04-14T14:36:25.896Z,22.70
2019-04-14T14:38:56.521Z,26.50
2019-04-14T14:41:27.183Z,17.40
2019-04-14T14:43:58.033Z,18.13
2019-04-14T14:47:06.260Z,19.40
2019-04-14T14:49:53.168Z,17.17
2019-04-14T14:52:23.863Z,17.10
2019-04-14T14:54:54.371Z,15.20
2019-04-14T14:57:24.857Z,16.80
2019-04-14T14:59:55.460Z,17.80
2019-04-14T15:02:26.841Z,17.67
2019-04-14T15:04:57.473Z,19.20
2019-04-14T15:07:28.581Z,22.40
2019-04-14T15:09:58.944Z,19.77
2019-04-14T15:12:29.837Z,24.30
2019-04-14T15:15:00.381Z,26.73
2019-04-14T15:17:31.254Z,19.03
2019-04-14T15:20:01.929Z,20.20
2019-04-14T15:22:32.980Z,19.37
2019-04-14T15:25:03.492Z,21.87
2019-04-14T15:27:34.102Z,18.83
2019-04-14T15:30:06.809Z,20.00
2019-04-14T15:32:37.329Z,148.43
2019-04-14T15:35:09.113Z,23.57
2019-04-14T15:37:39.948Z,21.03
2019-04-14T15:40:10.953Z,19.30
2019-04-14T15:42:42.109Z,18.27
2019-04-14T15:45:14.172Z,22.63
2019-04-14T15:47:44.699Z,19.47
2019-04-14T15:50:15.770Z,18.27
2019-04-14T15:52:46.378Z,19.97
2019-04-14T15:55:18.078Z,21.90
2019-04-14T15:58:07.732Z,21.83
2019-04-14T16:00:46.735Z,17.77
2019-04-14T16:03:39.109Z,18.60
2019-04-14T16:06:17.094Z,20.57
2019-04-14T16:08:57.498Z,23.77
2019-04-14T16:11:45.938Z,19.15
2019-04-14T16:14:38.056Z,18.33
2019-04-14T16:17:26.478Z,20.87
2019-04-14T16:20:02.000Z,24.23
2019-04-14T16:22:39.007Z,18.17
2019-04-14T16:25:10.287Z,19.47
2019-04-14T16:28:18.034Z,21.57
2019-04-14T16:31:14.992Z,18.73
2019-04-14T16:34:04.001Z,19.40
2019-04-14T16:36:35.104Z,17.10
2019-04-14T16:39:08.067Z,19.73
2019-04-14T16:41:39.918Z,15.07
2019-04-14T16:44:10.658Z,15.53
2019-04-14T16:46:41.473Z,16.20
2019-04-14T16:49:12.168Z,15.33
2019-04-14T16:52:03.132Z,15.53
2019-04-14T16:54:59.347Z,16.40
2019-04-14T16:57:47.817Z,14.80
2019-04-14T17:00:29.759Z,16.90
2019-04-14T17:03:00.383Z,15.10
2019-04-14T17:05:30.879Z,16.37
2019-04-14T17:08:01.612Z,16.47
2019-04-14T17:10:32.189Z,15.70
2019-04-14T17:13:04.079Z,20.97
2019-04-14T17:15:53.410Z,13.38
2019-04-14T17:18:49.801Z,15.90
2019-04-14T17:21:48.229Z,15.03
2019-04-14T17:24:37.739Z,17.37
2019-04-14T17:27:28.557Z,15.43
2019-04-14T17:30:25.268Z,14.40
2019-04-14T17:33:17.239Z,12.80
2019-04-14T17:36:06.672Z,16.63
2019-04-14T17:38:58.775Z,15.70
2019-04-14T17:41:38.725Z,11.40
2019-04-14T17:44:19.130Z,12.80
2019-04-14T17:47:24.430Z,13.47
2019-04-14T17:50:09.367Z,12.37
2019-04-14T17:52:43.321Z,15.00
2019-04-14T17:55:49.889Z,13.20
2019-04-14T17:58:28.263Z,14.67
2019-04-14T18:01:06.232Z,15.67
2019-04-14T18:03:55.778Z,14.60
2019-04-14T18:06:42.490Z,17.27
2019-04-14T18:09:38.139Z,22.53
2019-04-14T18:12:17.352Z,22.03
2019-04-14T18:15:19.028Z,26.50
2019-04-14T18:18:11.549Z,19.23
2019-04-14T18:20:47.511Z,18.53
2019-04-14T18:23:18.093Z,20.73
2019-04-14T18:25:50.456Z,15.80
2019-04-14T18:28:55.428Z,15.37
2019-04-14T18:31:47.597Z,16.97
2019-04-14T18:34:45.736Z,15.23
2019-04-14T18:37:26.372Z,15.53
2019-04-14T18:40:16.278Z,13.73
2019-04-14T18:43:20.467Z,15.53
2019-04-14T18:45:57.161Z,20.17
2019-04-14T18:48:58.824Z,13.03
2019-04-14T18:51:47.746Z,14.00
2019-04-14T18:54:37.305Z,20.73
2019-04-14T18:57:27.140Z,17.67
2019-04-14T19:00:19.030Z,19.10
2019-04-14T19:02:49.827Z,17.00
2019-04-14T19:05:21.019Z,21.60
2019-04-14T19:07:51.746Z,17.52
2019-04-14T19:10:23.760Z,16.30
2019-04-14T19:13:03.644Z,18.33
2019-04-14T19:15:43.720Z,18.40
2019-04-14T19:18:25.855Z,19.10
2019-04-14T19:21:27.903Z,17.70
2019-04-14T19:23:58.610Z,17.40
2019-04-14T19:26:29.445Z,19.20
2019-04-14T19:29:00.264Z,17.90
2019-04-14T19:31:30.762Z,17.70
2019-04-14T19:34:01.650Z,17.37
2019-04-14T19:36:32.599Z,19.17
2019-04-14T19:39:04.860Z,15.80
2019-04-14T19:41:36.442Z,23.93
2019-04-14T19:44:06.963Z,16.17
2019-04-14T19:46:37.787Z,16.03
2019-04-14T19:49:08.419Z,14.23
2019-04-14T19:51:42.065Z,16.33
2019-04-14T19:54:15.670Z,18.23
2019-04-14T19:56:49.761Z,17.43
2019-04-14T19:59:20.318Z,29.33
2019-04-14T20:01:50.735Z,16.33
2019-04-14T20:04:21.945Z,17.80
2019-04-14T20:06:53.415Z,18.90
2019-04-14T20:09:24.214Z,23.30
2019-04-14T20:11:55.075Z,17.67
2019-04-14T20:14:25.583Z,21.77
2019-04-14T20:17:07.918Z,20.10
2019-04-14T20:20:08.774Z,19.50
2019-04-14T20:22:50.617Z,19.43
2019-04-14T20:25:33.835Z,20.77
2019-04-14T20:28:32.261Z,20.37
2019-04-14T20:31:22.264Z,20.70
2019-04-14T20:33:54.141Z,15.50
2019-04-14T20:36:27.753Z,16.33
2019-04-14T20:38:58.190Z,17.23
2019-04-14T20:41:28.586Z,18.73
2019-04-14T20:44:01.727Z,17.40
2019-04-14T20:46:31.294Z,17.80
2019-04-14T20:49:03.055Z,16.63
2019-04-14T20:51:33.653Z,17.35
2019-04-14T20:54:04.173Z,18.60
2019-04-14T20:56:36.008Z,16.23
2019-04-14T20:59:06.567Z,21.53
2019-04-14T21:01:40.238Z,22.50
2019-04-14T21:04:33.045Z,16.30
2019-04-14T21:07:30.804Z,18.83
2019-04-14T21:10:27.139Z,18.67
2019-04-14T21:13:16.680Z,20.27
2019-04-14T21:15:51.065Z,16.37
2019-04-14T21:18:39.644Z,17.73
2019-04-14T21:21:26.893Z,17.00
2019-04-14T21:24:07.030Z,16.47
2019-04-14T21:27:11.628Z,20.73
2019-04-14T21:30:03.804Z,16.33
2019-04-14T21:32:48.588Z,18.30
2019-04-14T21:35:36.696Z,15.88
2019-04-14T21:38:15.021Z,18.37
2019-04-14T21:40:58.012Z,18.97
2019-04-14T21:43:28.277Z,19.73
2019-04-14T21:45:58.514Z,16.63
2019-04-14T21:48:28.799Z,18.10
2019-04-14T21:50:59.281Z,21.63
2019-04-14T21:53:29.850Z,20.17
2019-04-14T21:56:12.462Z,19.57
2019-04-14T21:58:51.104Z,16.20
2019-04-14T22:02:11.321Z,19.50
2019-04-14T22:04:59.635Z,19.87
2019-04-14T22:07:55.881Z,15.53
2019-04-14T22:10:41.417Z,18.23
2019-04-14T22:13:11.911Z,19.27
2019-04-14T22:15:42.311Z,20.20
2019-04-14T22:18:12.595Z,18.53
2019-04-14T22:20:42.884Z,19.90
2019-04-14T22:23:13.589Z,18.53
2019-04-14T22:25:44.007Z,18.47
2019-04-14T22:28:14.344Z,20.40
2019-04-14T22:30:44.488Z,19.03
2019-04-14T22:33:14.863Z,21.00
2019-04-14T22:35:45.070Z,17.40
2019-04-14T22:38:15.722Z,21.30
2019-04-14T22:40:45.900Z,18.73
2019-04-14T22:43:16.297Z,23.10
2019-04-14T22:45:46.475Z,22.40
2019-04-14T22:48:16.675Z,17.10
2019-04-14T22:50:46.954Z,18.80
2019-04-14T22:53:17.181Z,18.53
2019-04-14T22:55:47.421Z,19.50
2019-04-14T22:58:19.141Z,18.50
2019-04-14T23:00:57.086Z,22.43
2019-04-14T23:03:43.692Z,23.80
2019-04-14T23:06:31.720Z,21.43
2019-04-14T23:09:19.941Z,22.52
2019-04-14T23:12:05.534Z,18.80
2019-04-14T23:14:45.650Z,18.47
2019-04-14T23:17:33.890Z,18.03
2019-04-14T23:20:23.143Z,17.90
2019-04-14T23:23:10.492Z,16.00
2019-04-14T23:25:40.656Z,15.80
2019-04-14T23:28:11.069Z,20.13
2019-04-14T23:30:41.406Z,17.47
2019-04-14T23:33:11.529Z,17.03
2019-04-14T23:35:43.433Z,15.13
2019-04-14T23:38:13.755Z,18.77
2019-04-14T23:40:43.915Z,20.62
2019-04-14T23:43:14.418Z,25.87
2019-04-14T23:45:44.685Z,19.17
2019-04-14T23:48:14.823Z,18.40
2019-04-14T23:50:45.432Z,19.20
2019-04-14T23:53:15.802Z,18.43
2019-04-14T23:55:45.986Z,19.00
2019-04-14T23:58:16.293Z,20.10
